Latest Coastal Weather Observations for Laverton

IDV60701

Issued at 12:22 am EST Sunday 26 June 2022 (issued every 10 minutes, with the page automatically refreshed every 10 minutes)

About coastal observations | Map of coastal stations | Coastal observations for VIC | Marine services | Other Formats
Station Details ID: 087031 Name: LAVERTON RAAF Lat: -37.86 Lon: 144.76 Height: 20.1 m
Data from the previous 72 hours. | See also: Recent months at Laverton
Date/Time
EST
Wind Sea
Height
m
Swell Vis
km
Cloud Weather Temp
°C
Press
MSL
hPa
Rain since
9am
mm
Dir  Spd
kts
Gust
kts
Height
m
Period
s
Dir
26/12:00am N 9 15 - - - - 10 Cloudy - 12.0 1020.7 0.0
 
Date/Time
EST
Wind Sea
Height
m
Swell Vis
km
Cloud Weather Temp
°C
Press
MSL
hPa
Rain since
9am
mm
Dir  Spd
kts
Gust
kts
Height
m
Period
s
Dir
25/11:30pm N 10 17 - - - - 10 Partly cloudy - 12.4 1020.7 0.0
25/11:00pm N 9 14 - - - - 10 Partly cloudy - 12.4 1020.6 0.0
25/10:30pm NNW 11 16 - - - - 10 Partly cloudy - 12.0 1020.3 0.0
25/10:00pm N 7 12 - - - - 10 - - 11.1 1020.4 0.0
25/09:30pm NNE 7 8 - - - - 10 Partly cloudy - 9.6 1020.2 0.0
25/09:00pm NNE 7 8 - - - - 10 - - 9.9 1020.2 0.0
25/08:30pm N 5 8 - - - - 10 - - 10.7 1020.1 0.0
25/08:00pm NNW 8 11 - - - - 10 - - 11.5 1020.0 0.0
25/07:30pm NNW 9 12 - - - - 10 - - 11.6 1019.8 0.0
25/07:00pm N 9 12 - - - - 10 - - 11.6 1019.5 0.0
25/06:30pm N 9 13 - - - - 10 - - 12.0 1019.3 0.0
25/06:00pm N 9 14 - - - - 10 - - 12.4 1019.1 0.0
25/05:30pm N 7 11 - - - - 10 - - 12.7 1019.0 0.0
25/05:00pm NNW 8 13 - - - - 10 - - 13.5 1019.0 0.0
25/04:30pm NNW 11 15 - - - - 10 - - 14.6 1018.8 0.0
25/04:00pm NW 12 18 - - - - 10 - - 15.5 1018.8 0.0
25/03:30pm NW 14 22 - - - - 10 - - 15.7 1018.7 0.0
25/03:00pm NW 16 21 - - - - 10 Mostly clear - 15.7 1018.7 0.0
25/02:30pm NW 15 20 - - - - 10 Partly cloudy - 15.9 1018.7 0.0
25/02:00pm NW 17 25 - - - - 10 - - 15.8 1018.7 0.0
25/01:30pm NW 18 27 - - - - 10 Partly cloudy - 15.5 1018.9 0.0
25/01:00pm NW 19 27 - - - - 10 Partly cloudy - 15.3 1019.1 0.0
25/12:30pm NW 16 22 - - - - 10 - - 15.3 1019.3 0.0
25/12:00pm NW 15 21 - - - - 10 - - 15.0 1019.4 0.0
25/11:30am NW 16 24 - - - - 10 Partly cloudy - 14.8 1019.6 0.0
25/11:00am NNW 14 19 - - - - 10 - - 14.5 1019.8 0.0
25/10:30am NNW 14 21 - - - - 10 Partly cloudy - 13.9 1019.9 0.0
25/10:00am NNW 12 15 - - - - 10 - - 13.4 1020.0 0.0
25/09:30am NNW 10 15 - - - - 10 - - 12.6 1019.6 0.0
25/09:00am NNW 12 17 - - - - 10 - - 11.5 1019.1 0.0
25/08:30am NNW 10 15 - - - - 10 - - 10.4 1018.9 0.0
25/08:00am NNW 9 13 - - - - 10 - - 9.2 1018.7 0.0
25/07:30am NNW 9 13 - - - - 10 - - 9.2 1018.7 0.0
25/07:00am NW 11 13 - - - - 10 Partly cloudy - 9.5 1018.5 0.0
25/06:30am NNW 9 12 - - - - 10 Partly cloudy - 9.6 1017.9 0.0
25/06:00am NNW 11 14 - - - - 10 - - 9.6 1017.7 0.0
25/05:30am NNW 9 12 - - - - 10 - - 8.8 1017.5 0.0
25/05:00am NNW 7 11 - - - - 10 - - 8.5 1017.3 0.0
25/04:30am NNW 7 9 - - - - 10 - - 8.2 1017.2 0.0
25/04:00am NNW 7 9 - - - - 10 - - 8.8 1017.0 0.0
25/03:30am N 8 11 - - - - 10 - - 9.5 1017.1 0.0
25/03:00am N 6 10 - - - - 10 - - 9.4 1017.1 0.0
25/02:30am NNW 7 10 - - - - 10 Partly cloudy - 9.7 1017.3 0.0
25/02:00am NNW 7 10 - - - - 10 Cloudy - 10.5 1017.1 0.0
25/01:30am NNW 6 8 - - - - 10 Cloudy - 10.3 1017.0 0.0
25/01:00am NNW 5 7 - - - - 10 Cloudy - 10.1 1017.2 0.0
25/12:30am WNW 5 7 - - - - 10 Cloudy - 10.1 1017.4 0.0
25/12:00am NW 5 7 - - - - 10 Cloudy - 10.1 1017.4 0.0
 
Date/Time
EST
Wind Sea
Height
m
Swell Vis
km
Cloud Weather Temp
°C
Press
MSL
hPa
Rain since
9am
mm
Dir  Spd
kts
Gust
kts
Height
m
Period
s
Dir
24/11:30pm NW 6 7 - - - - 10 Cloudy - 10.1 1017.5 0.0
24/11:00pm NW 6 7 - - - - 10 Cloudy - 10.1 1017.5 0.0
24/10:30pm NW 5 6 - - - - 10 Partly cloudy - 10.0 1017.5 0.0
24/10:00pm NW 5 6 - - - - 10 Partly cloudy - 10.2 1017.6 0.0
24/09:30pm NW 4 5 - - - - 10 Partly cloudy - 9.9 1017.6 0.0
24/09:00pm NW 6 8 - - - - 10 Cloudy - 9.6 1017.5 0.0
24/08:30pm NW 6 8 - - - - 10 Partly cloudy - 9.6 1017.5 0.0
24/08:00pm WNW 5 6 - - - - 10 Partly cloudy - 10.0 1017.4 0.0
24/07:30pm W 5 7 - - - - 10 Cloudy - 11.1 1017.4 0.0
24/07:00pm W 6 8 - - - - 10 Partly cloudy - 11.1 1017.1 0.0
24/06:30pm W 5 7 - - - - 10 - - 11.2 1016.8 0.0
24/06:00pm W 6 8 - - - - 10 - - 11.8 1016.4 0.0
24/05:30pm WNW 5 6 - - - - 10 Partly cloudy - 12.9 1015.9 0.0
24/05:00pm W 7 9 - - - - 10 Partly cloudy - 14.3 1015.7 0.0
24/04:30pm NW 6 8 - - - - 10 - - 14.2 1015.4 0.0
24/04:00pm WNW 8 12 - - - - 10 - - 15.1 1015.3 0.0
24/03:30pm W 9 11 - - - - 10 Partly cloudy - 15.0 1015.3 0.0
24/03:00pm SW 7 10 - - - - 10 - - 14.6 1015.3 0.0
24/02:30pm SW 14 18 - - - - 10 Partly cloudy - 13.9 1015.1 0.0
24/02:00pm WNW 12 17 - - - - 10 Partly cloudy - 16.8 1014.8 0.0
24/01:30pm W 11 17 - - - - 10 Partly cloudy - 15.7 1015.0 0.0
24/01:00pm W 11 16 - - - - 10 - - 15.3 1015.2 0.0
24/12:30pm W 11 17 - - - - 10 Partly cloudy - 15.0 1015.3 0.0
24/12:00pm W 12 16 - - - - 10 Cloudy - 14.8 1015.4 0.0
24/11:30am WNW 11 14 - - - - 10 Cloudy - 14.3 1015.7 0.0
24/11:00am NW 8 11 - - - - 10 Cloudy - 13.6 1015.7 0.0
24/10:30am NW 9 13 - - - - 10 Partly cloudy - 12.8 1015.6 0.0
24/10:16am WNW 11 15 - - - - 10 Partly cloudy - 12.3 1015.7 0.0
24/10:00am W 12 17 - - - - 5 Partly cloudy - 11.8 1015.7 0.0
24/09:59am W 12 17 - - - - 7 Partly cloudy - 11.9 1015.6 0.0
24/09:42am W 13 23 - - - - 10 Partly cloudy - 12.5 1015.5 0.0
24/09:30am WNW 7 11 - - - - 10 Partly cloudy - 12.6 1015.3 0.0
24/09:16am WNW 6 10 - - - - 10 Partly cloudy - 12.3 1015.0 0.0
24/09:00am WNW 8 10 - - - - 6 Mostly cloudy Showers 11.9 1014.8 1.4
24/08:30am W 6 8 - - - - 5 Partly cloudy - 12.2 1014.5 1.0
24/08:27am W 6 8 - - - - 7 Partly cloudy - 12.3 1014.4 1.0
24/08:00am WNW 9 11 - - - - 10 Partly cloudy - 12.4 1014.1 1.0
24/07:30am NW 9 12 - - - - 10 Partly cloudy - 12.6 1013.8 1.0
24/07:00am N 5 7 - - - - 10 Cloudy - 12.1 1013.4 1.0
24/06:30am NNW 5 7 - - - - 10 Cloudy - 12.3 1012.8 1.0
24/06:00am NNW 7 11 - - - - 10 Cloudy Rain 12.6 1012.2 1.0
24/05:30am N 7 11 - - - - 10 Partly cloudy - 12.6 1011.9 0.8
24/05:00am NNW 6 9 - - - - 10 Cloudy - 13.6 1011.6 0.0
24/04:30am N 7 10 - - - - 10 Cloudy - 13.3 1011.6 0.0
24/04:00am N 9 14 - - - - 10 Cloudy - 13.6 1011.7 0.0
24/03:30am N 10 14 - - - - 10 Partly cloudy - 13.8 1011.9 0.0
24/03:00am N 11 17 - - - - 10 Cloudy - 14.1 1012.1 0.0
24/02:30am N 13 19 - - - - 10 Partly cloudy - 14.2 1012.4 0.0
24/02:00am N 11 16 - - - - 10 Partly cloudy - 13.3 1012.5 0.0
24/01:30am N 14 20 - - - - 10 Partly cloudy - 13.1 1012.3 0.0
24/01:00am N 13 20 - - - - 10 - - 13.5 1012.8 0.0
24/12:30am N 14 21 - - - - 10 Partly cloudy - 14.1 1013.0 0.0
24/12:00am N 14 21 - - - - 10 Cloudy - 14.4 1013.4 0.0
 
Date/Time
EST
Wind Sea
Height
m
Swell Vis
km
Cloud Weather Temp
°C
Press
MSL
hPa
Rain since
9am
mm
Dir  Spd
kts
Gust
kts
Height
m
Period
s
Dir
23/11:30pm N 13 21 - - - - 10 Partly cloudy - 14.4 1013.7 0.0
23/11:00pm N 15 23 - - - - 10 - - 14.7 1013.7 0.0
23/10:55pm N 15 25 - - - - 10 - - 14.8 1013.7 0.0
23/10:30pm N 17 26 - - - - 10 - - 14.9 1013.8 0.0
23/10:00pm N 17 28 - - - - 10 - - 14.8 1014.2 0.0
23/09:50pm N 15 25 - - - - 10 - - 14.8 1014.6 0.0
23/09:30pm N 14 21 - - - - 10 - - 14.9 1014.9 0.0
23/09:00pm N 14 23 - - - - 10 Mostly clear - 14.8 1015.3 0.0
23/08:30pm N 10 16 - - - - 10 - - 14.7 1015.6 0.0
23/08:00pm N 11 15 - - - - 10 - - 14.7 1015.7 0.0
23/07:30pm N 11 16 - - - - 10 - - 14.7 1015.8 0.0
23/07:00pm N 12 19 - - - - 10 - - 14.7 1015.9 0.0
23/06:30pm N 10 16 - - - - 10 - - 14.5 1016.2 0.0
23/06:00pm N 7 12 - - - - 10 Partly cloudy - 14.3 1016.3 0.0
23/05:30pm N 9 15 - - - - 10 - - 14.7 1016.2 0.0
23/05:00pm N 12 19 - - - - 10 - - 15.2 1016.3 0.0
23/04:30pm N 11 19 - - - - 10 - - 15.5 1016.2 0.0
23/04:00pm N 13 18 - - - - 10 - - 15.6 1016.3 0.0
23/03:30pm NNW 12 17 - - - - 10 - - 15.7 1016.7 0.0
23/03:00pm N 12 19 - - - - 10 Mostly clear - 15.7 1016.6 0.0
23/02:30pm NNW 12 17 - - - - 10 - - 15.9 1016.8 0.0
23/02:00pm NNW 13 19 - - - - 10 - - 16.2 1017.2 0.0
23/01:30pm NNW 14 22 - - - - 10 - - 16.2 1017.7 0.0
23/01:00pm NNW 12 17 - - - - 10 - - 16.3 1018.4 0.0
23/12:30pm NNW 10 15 - - - - 10 - - 16.1 1019.1 0.0
23/12:00pm NNW 12 17 - - - - 10 Partly cloudy - 16.0 1019.7 0.0
23/11:30am NNW 11 16 - - - - 10 - - 16.0 1020.3 0.0
23/11:00am NNW 9 13 - - - - 10 - - 15.7 1020.7 0.0
23/10:30am NNW 9 13 - - - - 10 - - 15.4 1021.1 0.0
23/10:00am NNW 6 11 - - - - 10 - - 14.9 1021.2 0.0
23/09:30am NNE 7 10 - - - - 10 - - 14.1 1021.0 0.0
23/09:00am N 6 10 - - - - 10 Mostly clear - 13.3 1021.3 0.2
23/08:30am N 7 10 - - - - 10 - - 12.9 1021.6 0.2
23/08:00am N 7 10 - - - - 10 - - 12.5 1021.4 0.2
23/07:30am NNW 9 13 - - - - 10 - - 11.9 1021.4 0.2
23/07:00am N 8 12 - - - - 10 Partly cloudy - 11.6 1021.4 0.2
23/06:30am N 6 8 - - - - 10 Partly cloudy - 11.4 1021.0 0.2
23/06:00am N 6 8 - - - - 10 Cloudy - 11.6 1021.0 0.2
23/05:30am NNE 7 10 - - - - 10 Partly cloudy - 11.5 1021.0 0.2
23/05:00am NNE 6 9 - - - - 10 - - 11.3 1021.0 0.2
23/04:30am N 7 9 - - - - 10 Partly cloudy - 11.6 1021.1 0.2
23/04:00am N 5 7 - - - - 10 Partly cloudy - 12.0 1021.6 0.2
23/03:30am N 5 9 - - - - 10 Partly cloudy - 12.2 1021.8 0.2
23/03:00am N 6 9 - - - - 10 Cloudy - 12.1 1022.1 0.2
23/02:30am N 4 7 - - - - 10 Cloudy - 12.0 1022.5 0.2
23/02:00am N 7 11 - - - - 10 Partly cloudy - 12.1 1022.5 0.2
23/01:30am NNE 6 9 - - - - 10 Partly cloudy - 11.9 1022.5 0.2
23/01:00am N 6 9 - - - - 10 Partly cloudy - 11.6 1022.9 0.2
23/12:30am N 8 12 - - - - 10 Partly cloudy - 11.7 1023.0 0.2

Other formats

Comma delimited format used in spreadsheet applications
http://www.bom.gov.au/fwo/IDV60701/IDV60701.94865.axf

JavaScript Object Notation format (JSON) in row-major order
http://www.bom.gov.au/fwo/IDV60701/IDV60701.94865.json

Data quality

Most of these data are generated automatically and are frequently updated. Quality checks on data are not normally performed. It is possible for incorrect values to appear. Refer to information at About Latest Weather Observations and please check the disclaimer before using these data.